Time;durP1;ratioP1;P1;durP2;ratioP2;P2;SDS_P1;SDS_P2;PMS_P1;PMS_P2;Temp;Humidity;BMP_temperature;BMP_pressure;BME280_temperature;BME280_humidity;BME280_pressure;Samples;Min_cycle;Max_cycle;Signal;HPM_P1;HPM_P2
2022/12/31 00:00:58;;;;;;;;;;;;;;;12.86;92.14;99426.88;7359086;19;19918;-68
2022/12/31 00:03:24;;;;;;;;;;;;;;;12.86;92.74;99426.88;7358052;19;20031;-67
2022/12/31 00:05:52;;;;;;;;;;;;;;;12.89;93.57;99430.13;7353882;19;19948;-67
2022/12/31 00:08:18;;;;;;;;;;;;;;;12.91;93.59;99436.00;7355396;19;19922;-67
2022/12/31 00:10:45;;;;;;;;;;;;;;;12.93;93.59;99448.00;7358894;19;19970;-67
2022/12/31 00:13:12;;;;;;;;;;;;;;;12.94;93.43;99435.63;7355809;19;19941;-67
2022/12/31 00:15:40;;;;;;;;;;;;;;;12.93;93.64;99434.81;7357558;19;19918;-67
2022/12/31 00:18:08;;;;;;;;;;;;;;;12.95;94.00;99434.59;7355671;19;19959;-67
2022/12/31 00:20:39;;;;;;;;;;;;;;;12.96;94.06;99436.22;7354845;19;20802;-68
2022/12/31 00:23:08;;;;;;;;;;;;;;;12.98;94.21;99426.28;7354619;19;19923;-68
2022/12/31 00:25:35;;;;;;;;;;;;;;;12.98;94.01;99442.13;7357535;19;19923;-66
2022/12/31 00:28:03;;;;;;;;;;;;;;;12.97;94.00;99451.84;7358026;19;20225;-68
2022/12/31 00:30:30;;;;;;;;;;;;;;;12.98;93.90;99445.56;7357346;19;19918;-66
2022/12/31 00:32:57;;;;;;;;;;;;;;;12.96;93.92;99431.75;7357379;19;20352;-66
2022/12/31 00:35:25;;;;;;;;;;;;;;;12.98;94.23;99442.13;7352969;19;20486;-67
2022/12/31 00:37:52;;;;;;;;;;;;;;;12.99;94.28;99427.91;7358291;19;19927;-69
2022/12/31 00:40:19;;;;;;;;;;;;;;;13.01;94.05;99425.84;7356177;19;19991;-67
2022/12/31 00:42:46;;;;;;;;;;;;;;;13.02;93.50;99432.75;7358291;19;21666;-68
2022/12/31 00:45:14;;;;;;;;;;;;;;;13.02;93.45;99446.78;7354821;19;19922;-67
2022/12/31 00:47:41;;;;;;;;;;;;;;;13.04;93.40;99443.94;7355768;19;19927;-66
2022/12/31 00:50:08;;;;;;;;;;;;;;;13.04;93.60;99450.03;7353121;19;20251;-68
2022/12/31 00:52:35;;;;;;;;;;;;;;;13.05;93.34;99456.13;7355658;19;20391;-67
2022/12/31 00:55:02;;;;;;;;;;;;;;;13.04;93.12;99450.03;7355496;19;19934;-67
2022/12/31 00:57:28;;;;;;;;;;;;;;;13.01;92.96;99460.19;7357124;19;20490;-67
2022/12/31 00:59:55;;;;;;;;;;;;;;;13.00;92.78;99450.66;7356426;19;19998;-67
2022/12/31 01:02:22;;;;;;;;;;;;;;;12.99;93.01;99455.13;7359165;19;19948;-67
2022/12/31 01:04:50;;;;;;;;;;;;;;;12.98;93.19;99458.78;7358413;19;19961;-67
2022/12/31 01:07:16;;;;;;;;;;;;;;;13.01;93.14;99452.25;7352402;19;19921;-67
2022/12/31 01:09:43;;;;;;;;;;;;;;;13.05;93.55;99458.78;7354349;19;20371;-67
2022/12/31 01:12:10;;;;;;;;;;;;;;;13.06;93.27;99439.25;7356646;19;19961;-67
2022/12/31 01:14:37;;;;;;;;;;;;;;;13.07;93.52;99438.25;7356241;19;19919;-67
2022/12/31 01:17:04;;;;;;;;;;;;;;;13.07;93.44;99432.97;7354809;19;19922;-67
2022/12/31 01:19:31;;;;;;;;;;;;;;;13.06;93.74;99413.66;7355607;19;20367;-67
2022/12/31 01:21:58;;;;;;;;;;;;;;;13.07;94.26;99415.28;7353801;19;19918;-67
2022/12/31 01:24:25;;;;;;;;;;;;;;;13.08;94.29;99413.47;7353147;19;19944;-68
2022/12/31 01:26:54;;;;;;;;;;;;;;;13.08;94.33;99419.56;7356006;19;19923;-68
2022/12/31 01:29:21;;;;;;;;;;;;;;;13.07;94.08;99412.66;7353626;19;19924;-67
2022/12/31 01:31:48;;;;;;;;;;;;;;;13.09;94.24;99402.72;7356822;19;20360;-68
2022/12/31 01:34:15;;;;;;;;;;;;;;;13.10;94.62;99414.09;7354685;19;20286;-68
2022/12/31 01:36:42;;;;;;;;;;;;;;;13.07;94.72;99438.25;7350116;19;19933;-67
2022/12/31 01:39:09;;;;;;;;;;;;;;;13.06;94.83;99450.63;7355927;19;19938;-67
2022/12/31 01:41:39;;;;;;;;;;;;;;;13.04;94.61;99465.06;7355135;19;19926;-67
2022/12/31 01:44:16;;;;;;;;;;;;;;;13.01;94.44;99457.53;7355207;19;19923;-67
2022/12/31 01:46:46;;;;;;;;;;;;;;;12.99;94.70;99449.03;7355924;19;20297;-66
2022/12/31 01:49:20;;;;;;;;;;;;;;;12.97;94.82;99436.00;7353539;19;19950;-66
2022/12/31 01:51:50;;;;;;;;;;;;;;;12.96;95.55;99447.59;7350303;19;19950;-67
2022/12/31 01:54:18;;;;;;;;;;;;;;;12.95;95.42;99464.47;7351846;19;19915;-67
2022/12/31 01:56:46;;;;;;;;;;;;;;;12.91;95.28;99465.03;7354081;19;19921;-67
2022/12/31 01:59:16;;;;;;;;;;;;;;;12.86;95.44;99455.09;7355843;19;19923;-67
2022/12/31 02:01:45;;;;;;;;;;;;;;;12.83;95.45;99452.88;7355046;19;19978;-67
2022/12/31 02:04:13;;;;;;;;;;;;;;;12.83;96.30;99447.59;7353129;19;19919;-67
2022/12/31 02:06:43;;;;;;;;;;;;;;;12.82;96.23;99449.41;7349781;19;20383;-68
2022/12/31 02:09:10;;;;;;;;;;;;;;;12.81;96.14;99449.59;7353185;19;19919;-67
2022/12/31 02:11:37;;;;;;;;;;;;;;;12.80;96.09;99448.78;7354307;19;20026;-67
2022/12/31 02:14:10;;;;;;;;;;;;;;;12.81;95.96;99452.25;7351125;19;20865;-67
2022/12/31 02:16:52;;;;;;;;;;;;;;;12.79;96.05;99441.09;7352001;19;19933;-67
2022/12/31 02:19:21;;;;;;;;;;;;;;;12.79;96.57;99443.72;7353972;19;20610;-68
2022/12/31 02:21:54;;;;;;;;;;;;;;;12.79;96.38;99443.72;7350979;19;21642;-68
2022/12/31 02:24:36;;;;;;;;;;;;;;;12.78;96.25;99442.91;7353743;19;19930;-66
2022/12/31 02:27:07;;;;;;;;;;;;;;;12.80;96.62;99447.97;7353062;19;21751;-68
2022/12/31 02:29:44;;;;;;;;;;;;;;;12.81;96.69;99439.03;7351414;19;19923;-67
2022/12/31 02:32:15;;;;;;;;;;;;;;;12.83;96.93;99435.22;7352744;19;19930;-68
2022/12/31 02:34:47;;;;;;;;;;;;;;;12.85;97.16;99433.16;7352373;19;19963;-67
2022/12/31 02:37:15;;;;;;;;;;;;;;;12.85;96.89;99448.19;7347559;19;19931;-67
2022/12/31 02:39:42;;;;;;;;;;;;;;;12.85;96.65;99461.38;7354336;19;20261;-66
2022/12/31 02:42:09;;;;;;;;;;;;;;;12.83;96.40;99456.31;7355060;19;19919;-67
2022/12/31 02:44:37;;;;;;;;;;;;;;;12.78;95.83;99445.56;7353828;19;19922;-67
2022/12/31 02:47:06;;;;;;;;;;;;;;;12.78;96.04;99442.09;7352463;19;19930;-67
2022/12/31 02:49:36;;;;;;;;;;;;;;;12.81;96.41;99452.25;7350377;19;20903;-67
2022/12/31 02:52:11;;;;;;;;;;;;;;;12.83;96.76;99458.97;7347015;19;19931;-66
2022/12/31 02:54:58;;;;;;;;;;;;;;;12.83;96.63;99464.25;7350620;19;20540;-67
2022/12/31 02:57:29;;;;;;;;;;;;;;;12.82;96.19;99461.78;7351771;19;19919;-67
2022/12/31 03:02:38;;;;;;;;;;;;;;;12.84;96.59;99462.41;7352237;19;19999;-67
2022/12/31 03:05:06;;;;;;;;;;;;;;;12.88;96.79;99473.38;7355606;19;19923;-66
2022/12/31 03:07:33;;;;;;;;;;;;;;;12.88;96.42;99465.47;7358546;19;19922;-67
2022/12/31 03:10:00;;;;;;;;;;;;;;;12.89;96.67;99477.66;7357032;19;20267;-66
2022/12/31 03:15:06;;;;;;;;;;;;;;;12.90;96.28;99453.66;7359459;19;19919;-68
2022/12/31 03:17:33;;;;;;;;;;;;;;;12.91;97.04;99444.75;7359708;19;20257;-66
2022/12/31 03:22:39;;;;;;;;;;;;;;;12.89;96.75;99428.31;7359241;19;20271;-67
2022/12/31 03:27:44;;;;;;;;;;;;;;;12.85;96.53;99435.78;7357977;19;20337;-67
2022/12/31 03:30:12;;;;;;;;;;;;;;;12.84;96.91;99426.28;7357316;19;19930;-67
2022/12/31 03:32:39;;;;;;;;;;;;;;;12.85;97.09;99413.88;7361029;19;19966;-68
2022/12/31 03:35:06;;;;;;;;;;;;;;;12.85;97.50;99413.88;7356472;19;19922;-67
2022/12/31 03:37:33;;;;;;;;;;;;;;;12.85;97.68;99398.03;7356734;19;20294;-66
2022/12/31 03:40:00;;;;;;;;;;;;;;;12.86;97.69;99399.66;7357833;19;20251;-67
2022/12/31 03:42:26;;;;;;;;;;;;;;;12.88;97.91;99392.34;7360378;19;20788;-67
2022/12/31 03:44:53;;;;;;;;;;;;;;;12.88;97.98;99395.00;7358831;19;19961;-67
2022/12/31 03:47:20;;;;;;;;;;;;;;;12.91;98.13;99383.19;7357237;19;20018;-67
2022/12/31 03:49:46;;;;;;;;;;;;;;;12.91;98.48;99370.81;7356757;19;19961;-66
2022/12/31 03:52:13;;;;;;;;;;;;;;;12.92;98.31;99369.81;7355667;19;19914;-67
2022/12/31 03:54:40;;;;;;;;;;;;;;;12.94;98.48;99373.06;7358132;19;19922;-67
2022/12/31 03:57:06;;;;;;;;;;;;;;;12.94;98.83;99364.34;7356520;19;19929;-67
2022/12/31 03:59:33;;;;;;;;;;;;;;;12.95;98.82;99374.69;7358469;19;19943;-67
2022/12/31 04:02:00;;;;;;;;;;;;;;;12.97;98.93;99362.09;7356563;19;20199;-67
2022/12/31 04:04:27;;;;;;;;;;;;;;;12.98;99.32;99358.44;7356598;19;19927;-68
2022/12/31 04:06:54;;;;;;;;;;;;;;;12.98;99.49;99349.69;7353695;19;19935;-67
2022/12/31 04:09:20;;;;;;;;;;;;;;;12.99;99.63;99338.94;7355655;19;19922;-66
2022/12/31 04:11:47;;;;;;;;;;;;;;;13.01;99.64;99334.25;7357154;19;19923;-66
2022/12/31 04:14:16;;;;;;;;;;;;;;;13.00;100.00;99327.38;7356569;19;20734;-68
2022/12/31 04:16:43;;;;;;;;;;;;;;;13.02;100.00;99314.75;7356181;19;20406;-67
2022/12/31 04:19:10;;;;;;;;;;;;;;;13.03;100.00;99320.84;7355643;19;19939;-68
2022/12/31 04:21:37;;;;;;;;;;;;;;;13.01;100.00;99315.78;7354518;19;19918;-66
2022/12/31 04:24:04;;;;;;;;;;;;;;;13.02;100.00;99317.41;7357720;19;20313;-67
2022/12/31 04:26:31;;;;;;;;;;;;;;;13.01;100.00;99313.13;7352636;19;19926;-67
2022/12/31 04:28:57;;;;;;;;;;;;;;;13.03;100.00;99320.84;7355912;19;19918;-67
2022/12/31 04:31:24;;;;;;;;;;;;;;;13.07;100.00;99324.69;7359035;19;20184;-69
2022/12/31 04:33:51;;;;;;;;;;;;;;;13.09;100.00;99320.84;7355650;19;19960;-67
2022/12/31 04:36:17;;;;;;;;;;;;;;;13.11;100.00;99326.75;7352589;19;19937;-68
2022/12/31 04:38:44;;;;;;;;;;;;;;;13.13;100.00;99319.44;7356895;19;20409;-68
2022/12/31 04:43:50;;;;;;;;;;;;;;;13.18;100.00;99338.13;7357548;19;19927;-65
2022/12/31 04:46:18;;;;;;;;;;;;;;;13.24;100.00;99329.38;7356095;19;20527;-67
2022/12/31 04:48:45;;;;;;;;;;;;;;;13.27;100.00;99328.94;7356899;19;20289;-67
2022/12/31 04:51:12;;;;;;;;;;;;;;;13.31;100.00;99331.19;7354190;19;19952;-67
2022/12/31 04:53:39;;;;;;;;;;;;;;;13.34;100.00;99342.16;7354189;19;19931;-67
2022/12/31 04:56:06;;;;;;;;;;;;;;;13.38;100.00;99331.97;7356818;19;19927;-68
2022/12/31 04:58:33;;;;;;;;;;;;;;;13.40;100.00;99333.41;7353480;19;20079;-67
2022/12/31 05:01:00;;;;;;;;;;;;;;;13.45;100.00;99336.22;7356948;19;19947;-66
2022/12/31 05:03:27;;;;;;;;;;;;;;;13.50;100.00;99340.88;7354402;19;19923;-67
2022/12/31 05:05:58;;;;;;;;;;;;;;;13.56;100.00;99329.50;7353943;19;19949;-67
2022/12/31 05:08:25;;;;;;;;;;;;;;;13.60;100.00;99328.84;7355182;19;19923;-68
2022/12/31 05:10:52;;;;;;;;;;;;;;;13.65;100.00;99328.22;7358125;19;19926;-67
2022/12/31 05:13:18;;;;;;;;;;;;;;;13.70;100.00;99341.63;7353614;19;19923;-67
2022/12/31 05:15:45;;;;;;;;;;;;;;;13.76;100.00;99351.38;7353999;19;19953;-67
2022/12/31 05:18:12;;;;;;;;;;;;;;;13.81;100.00;99342.81;7357214;19;20616;-68
2022/12/31 05:20:39;;;;;;;;;;;;;;;13.88;100.00;99346.22;7356686;19;19955;-67
2022/12/31 05:23:06;;;;;;;;;;;;;;;13.94;100.00;99348.00;7355322;19;19942;-69
2022/12/31 05:25:32;;;;;;;;;;;;;;;14.00;100.00;99336.59;7354180;19;19931;-67
2022/12/31 05:27:59;;;;;;;;;;;;;;;14.05;100.00;99348.16;7357028;19;19926;-67
2022/12/31 05:30:26;;;;;;;;;;;;;;;14.11;100.00;99346.50;7352406;19;19930;-67
2022/12/31 05:32:53;;;;;;;;;;;;;;;14.19;99.99;99348.91;7353209;19;19919;-66
2022/12/31 05:35:19;;;;;;;;;;;;;;;14.24;99.64;99338.47;7352756;19;19926;-68
2022/12/31 05:37:46;;;;;;;;;;;;;;;14.28;98.88;99360.84;7352007;19;19960;-67
2022/12/31 05:40:13;;;;;;;;;;;;;;;14.36;98.43;99357.13;7351221;19;20554;-67
2022/12/31 05:42:39;;;;;;;;;;;;;;;14.42;98.27;99348.38;7356779;19;20504;-67
2022/12/31 05:45:06;;;;;;;;;;;;;;;14.46;97.81;99353.03;7354883;19;19935;-68
2022/12/31 05:47:33;;;;;;;;;;;;;;;14.50;97.57;99354.22;7353493;19;19922;-67
2022/12/31 05:50:00;;;;;;;;;;;;;;;14.55;97.08;99350.94;7351731;19;19927;-67
2022/12/31 05:52:27;;;;;;;;;;;;;;;14.59;96.49;99348.66;7352055;19;19955;-67
2022/12/31 05:54:54;;;;;;;;;;;;;;;14.64;96.34;99354.91;7354484;19;20406;-67
2022/12/31 05:57:20;;;;;;;;;;;;;;;14.68;95.94;99369.34;7352344;19;19998;-67
2022/12/31 05:59:47;;;;;;;;;;;;;;;14.71;95.77;99376.06;7354980;19;19922;-67
2022/12/31 06:02:14;;;;;;;;;;;;;;;14.72;95.74;99367.91;7354810;19;20257;-67
2022/12/31 06:04:41;;;;;;;;;;;;;;;14.75;95.52;99367.47;7355575;19;20488;-67
2022/12/31 06:07:08;;;;;;;;;;;;;;;14.77;95.27;99383.97;7347259;19;19935;-67
2022/12/31 06:09:35;;;;;;;;;;;;;;;14.77;95.04;99386.63;7352120;19;19956;-66
2022/12/31 06:12:02;;;;;;;;;;;;;;;14.79;95.10;99399.63;7354961;19;19923;-67
2022/12/31 06:14:28;;;;;;;;;;;;;;;14.80;94.49;99395.94;7351618;19;19962;-66
2022/12/31 06:16:55;;;;;;;;;;;;;;;14.81;94.78;99408.16;7354831;19;19930;-66
2022/12/31 06:19:22;;;;;;;;;;;;;;;14.84;94.67;99411.19;7352987;19;19951;-67
2022/12/31 06:21:49;;;;;;;;;;;;;;;14.85;94.38;99412.81;7352692;19;19923;-67
2022/12/31 06:24:16;;;;;;;;;;;;;;;14.86;94.42;99410.97;7347208;19;19986;-67
2022/12/31 06:26:43;;;;;;;;;;;;;;;14.87;94.34;99412.59;7352149;19;19943;-67
2022/12/31 06:29:10;;;;;;;;;;;;;;;14.88;94.01;99411.59;7353784;19;19926;-67
2022/12/31 06:31:36;;;;;;;;;;;;;;;14.89;94.09;99421.13;7352069;19;19915;-66
2022/12/31 06:34:03;;;;;;;;;;;;;;;14.88;94.01;99428.25;7350608;19;20566;-67
2022/12/31 06:36:30;;;;;;;;;;;;;;;14.89;93.78;99429.88;7350105;19;19947;-68
2022/12/31 06:38:57;;;;;;;;;;;;;;;14.87;93.80;99416.06;7357606;19;20340;-66
2022/12/31 06:41:24;;;;;;;;;;;;;;;14.87;93.47;99415.25;7360385;19;19919;-67
2022/12/31 06:43:50;;;;;;;;;;;;;;;14.87;93.36;99409.97;7358629;19;19930;-67
2022/12/31 06:46:17;;;;;;;;;;;;;;;14.87;93.24;99402.00;7358005;19;19927;-67
2022/12/31 06:48:44;;;;;;;;;;;;;;;14.86;93.06;99430.34;7357816;19;19930;-67
2022/12/31 06:51:12;;;;;;;;;;;;;;;14.84;92.80;99420.97;7357264;19;19933;-68
2022/12/31 06:53:44;;;;;;;;;;;;;;;14.83;92.40;99417.50;7361579;19;19986;-67
2022/12/31 06:56:13;;;;;;;;;;;;;;;14.82;92.34;99415.09;7359044;19;20211;-67
2022/12/31 06:58:41;;;;;;;;;;;;;;;14.83;92.10;99430.75;7358399;19;19927;-66
2022/12/31 07:01:17;;;;;;;;;;;;;;;14.82;92.33;99418.56;7360585;19;19951;-68
2022/12/31 07:03:45;;;;;;;;;;;;;;;14.83;92.45;99430.75;7358677;19;19918;-67
2022/12/31 07:06:16;;;;;;;;;;;;;;;14.85;92.24;99441.13;7355791;19;19923;-70
2022/12/31 07:08:44;;;;;;;;;;;;;;;14.89;92.31;99434.38;7358292;19;19923;-67
2022/12/31 07:11:12;;;;;;;;;;;;;;;14.89;92.68;99451.09;7358437;19;19949;-69
2022/12/31 07:13:41;;;;;;;;;;;;;;;14.90;92.70;99447.41;7360087;19;19926;-67
2022/12/31 07:16:14;;;;;;;;;;;;;;;14.89;93.19;99459.03;7359716;19;20862;-67
2022/12/31 07:18:51;;;;;;;;;;;;;;;14.90;93.58;99458.00;7359223;19;19934;-66
2022/12/31 07:21:23;;;;;;;;;;;;;;;14.90;93.70;99457.19;7355835;19;20468;-67
2022/12/31 07:23:50;;;;;;;;;;;;;;;14.91;93.88;99467.59;7359626;19;20354;-67
2022/12/31 07:26:18;;;;;;;;;;;;;;;14.93;94.24;99451.47;7356607;19;19926;-67
2022/12/31 07:28:45;;;;;;;;;;;;;;;14.92;94.22;99452.50;7359501;19;20894;-68
2022/12/31 07:31:15;;;;;;;;;;;;;;;14.89;94.63;99466.97;7358567;19;19911;-68
2022/12/31 07:33:42;;;;;;;;;;;;;;;14.90;95.52;99458.00;7357462;19;19926;-67
2022/12/31 07:36:12;;;;;;;;;;;;;;;14.89;95.70;99468.81;7356834;19;19932;-67
2022/12/31 07:38:41;;;;;;;;;;;;;;;14.89;95.72;99472.28;7358541;19;19927;-67
2022/12/31 07:41:15;;;;;;;;;;;;;;;14.88;95.99;99477.81;7359713;19;20307;-67
2022/12/31 07:43:43;;;;;;;;;;;;;;;14.87;95.86;99486.78;7357474;19;19923;-68
2022/12/31 07:46:11;;;;;;;;;;;;;;;14.86;96.25;99479.84;7356775;19;20364;-67
2022/12/31 07:48:38;;;;;;;;;;;;;;;14.84;96.47;99489.81;7358213;19;20555;-67
2022/12/31 07:51:05;;;;;;;;;;;;;;;14.86;96.40;99479.84;7354552;19;19923;-67
2022/12/31 07:53:33;;;;;;;;;;;;;;;14.83;96.32;99491.66;7358287;19;19925;-67
2022/12/31 07:56:01;;;;;;;;;;;;;;;14.81;96.19;99500.84;7356128;19;20359;-67
2022/12/31 07:58:30;;;;;;;;;;;;;;;14.78;96.54;99496.78;7356639;19;19919;-68
2022/12/31 08:00:59;;;;;;;;;;;;;;;14.78;96.36;99504.72;7357115;19;19961;-67
2022/12/31 08:03:36;;;;;;;;;;;;;;;14.78;96.39;99504.72;7356451;19;19972;-67
2022/12/31 08:06:07;;;;;;;;;;;;;;;14.81;96.49;99519.41;7353419;19;19919;-67
2022/12/31 08:08:45;;;;;;;;;;;;;;;14.81;96.39;99514.09;7356366;19;19927;-68
2022/12/31 08:11:22;;;;;;;;;;;;;;;14.80;96.28;99523.88;7358549;19;19911;-67
2022/12/31 08:13:51;;;;;;;;;;;;;;;14.80;96.08;99529.16;7357826;19;20002;-67
2022/12/31 08:16:18;;;;;;;;;;;;;;;14.81;96.20;99546.69;7356141;19;19937;-67
2022/12/31 08:18:46;;;;;;;;;;;;;;;14.83;95.85;99546.50;7356831;19;20822;-68
2022/12/31 08:21:14;;;;;;;;;;;;;;;14.84;95.64;99556.03;7353492;19;20518;-67
2022/12/31 08:23:45;;;;;;;;;;;;;;;14.84;95.30;99562.16;7356789;19;19922;-68
2022/12/31 08:26:16;;;;;;;;;;;;;;;14.84;95.35;99550.75;7357355;19;20588;-67
2022/12/31 08:28:52;;;;;;;;;;;;;;;14.85;95.02;99563.78;7357872;19;19923;-67
2022/12/31 08:31:24;;;;;;;;;;;;;;;14.88;94.95;99570.50;7357973;19;19923;-68
2022/12/31 08:33:56;;;;;;;;;;;;;;;14.89;94.84;99580.03;7358204;19;20551;-67
2022/12/31 08:36:31;;;;;;;;;;;;;;;14.91;94.34;99576.19;7353108;19;19953;-67
2022/12/31 08:39:02;;;;;;;;;;;;;;;14.93;94.13;99587.34;7356520;19;20666;-67
2022/12/31 08:41:43;;;;;;;;;;;;;;;14.94;93.93;99578.41;7358353;19;19921;-67
2022/12/31 08:44:20;;;;;;;;;;;;;;;14.94;93.84;99582.88;7359141;19;19918;-67
2022/12/31 08:47:10;;;;;;;;;;;;;;;14.95;93.80;99598.56;7356468;19;19918;-67
2022/12/31 08:49:41;;;;;;;;;;;;;;;14.95;93.81;99603.88;7359130;19;19926;-67
2022/12/31 08:52:19;;;;;;;;;;;;;;;14.97;93.69;99604.47;7351527;19;19919;-68
2022/12/31 08:54:46;;;;;;;;;;;;;;;14.99;93.75;99597.13;7356468;19;19926;-67
2022/12/31 08:57:22;;;;;;;;;;;;;;;14.99;93.48;99599.75;7354024;19;20332;-67
2022/12/31 08:59:54;;;;;;;;;;;;;;;15.01;93.64;99625.25;7357461;19;20032;-67
2022/12/31 09:02:31;;;;;;;;;;;;;;;15.01;93.97;99631.34;7354521;19;21646;-68
2022/12/31 09:05:08;;;;;;;;;;;;;;;15.01;94.03;99633.19;7354148;19;19919;-67
2022/12/31 09:07:38;;;;;;;;;;;;;;;15.02;94.01;99622.38;7352196;19;19949;-67
2022/12/31 09:10:14;;;;;;;;;;;;;;;15.02;94.14;99611.78;7353452;19;20143;-67
2022/12/31 09:12:55;;;;;;;;;;;;;;;15.02;94.10;99605.66;7357546;19;20310;-67
2022/12/31 09:15:30;;;;;;;;;;;;;;;15.04;94.12;99606.25;7355793;19;19922;-67
2022/12/31 09:17:58;;;;;;;;;;;;;;;15.06;94.72;99620.94;7356201;19;19911;-67
2022/12/31 09:20:30;;;;;;;;;;;;;;;15.05;94.48;99616.66;7354734;19;19951;-67
2022/12/31 09:23:09;;;;;;;;;;;;;;;15.06;94.47;99634.19;7352796;19;19986;-67
2022/12/31 09:25:42;;;;;;;;;;;;;;;15.08;94.65;99623.38;7354437;19;19919;-67
2022/12/31 09:28:21;;;;;;;;;;;;;;;15.11;94.69;99631.72;7352776;19;19936;-67
2022/12/31 09:30:53;;;;;;;;;;;;;;;15.09;94.58;99632.94;7353459;19;19936;-67
2022/12/31 09:33:30;;;;;;;;;;;;;;;15.08;94.56;99628.69;7355089;19;19932;-68
2022/12/31 09:36:01;;;;;;;;;;;;;;;15.08;94.70;99629.50;7354080;19;20256;-67
2022/12/31 09:38:38;;;;;;;;;;;;;;;15.05;94.40;99637.03;7353705;19;19921;-68
2022/12/31 09:41:14;;;;;;;;;;;;;;;15.00;94.29;99645.63;7356530;19;20214;-68
2022/12/31 09:43:52;;;;;;;;;;;;;;;14.94;94.51;99641.97;7355278;19;19923;-68
2022/12/31 09:46:30;;;;;;;;;;;;;;;14.97;94.50;99646.03;7353804;19;20039;-67
2022/12/31 09:49:05;;;;;;;;;;;;;;;14.96;94.56;99655.81;7354480;19;19930;-68
2022/12/31 09:51:45;;;;;;;;;;;;;;;14.95;94.57;99656.03;7350422;19;19994;-67
2022/12/31 09:54:18;;;;;;;;;;;;;;;14.95;94.42;99662.16;7353757;19;19918;-68
2022/12/31 09:56:50;;;;;;;;;;;;;;;14.98;94.32;99661.72;7354727;19;21638;-67
2022/12/31 09:59:34;;;;;;;;;;;;;;;14.99;94.25;99659.88;7354292;19;19926;-67
2022/12/31 10:02:15;;;;;;;;;;;;;;;15.01;94.49;99664.97;7355605;19;19941;-67
2022/12/31 10:04:51;;;;;;;;;;;;;;;15.00;94.93;99661.50;7354642;19;20683;-67
2022/12/31 10:07:25;;;;;;;;;;;;;;;14.97;95.27;99654.00;7352031;19;20351;-67
2022/12/31 10:10:00;;;;;;;;;;;;;;;14.93;95.51;99650.16;7354026;19;19927;-68
2022/12/31 10:12:27;;;;;;;;;;;;;;;14.92;95.78;99648.50;7351967;19;19926;-68
2022/12/31 10:15:04;;;;;;;;;;;;;;;14.90;95.89;99635.47;7352608;19;19923;-67
2022/12/31 10:17:40;;;;;;;;;;;;;;;14.91;96.20;99638.94;7352320;19;20221;-68
2022/12/31 10:20:17;;;;;;;;;;;;;;;14.89;96.68;99639.13;7354100;19;19923;-68
2022/12/31 10:22:54;;;;;;;;;;;;;;;14.89;96.77;99638.31;7353445;19;20263;-67
2022/12/31 10:25:30;;;;;;;;;;;;;;;14.89;96.94;99643.63;7353364;19;19936;-68
2022/12/31 10:28:13;;;;;;;;;;;;;;;14.88;96.92;99642.00;7352534;19;19915;-67
2022/12/31 10:30:47;;;;;;;;;;;;;;;14.89;97.35;99647.09;7353447;19;20376;-67
2022/12/31 10:33:18;;;;;;;;;;;;;;;14.88;97.35;99645.44;7351684;19;20270;-67
2022/12/31 10:35:47;;;;;;;;;;;;;;;14.89;97.63;99649.72;7351406;19;19949;-67
2022/12/31 10:38:21;;;;;;;;;;;;;;;14.90;97.84;99655.84;7350046;19;19929;-68
2022/12/31 10:41:00;;;;;;;;;;;;;;;14.89;97.79;99643.63;7355742;19;20194;-67
2022/12/31 10:43:43;;;;;;;;;;;;;;;14.90;97.77;99642.59;7351449;19;19942;-67
2022/12/31 10:46:19;;;;;;;;;;;;;;;14.90;97.97;99637.31;7354046;19;19930;-67
2022/12/31 10:48:58;;;;;;;;;;;;;;;14.91;98.07;99628.34;7350258;19;20344;-68
2022/12/31 10:51:35;;;;;;;;;;;;;;;14.92;98.25;99637.91;7352830;19;20346;-67
2022/12/31 10:54:11;;;;;;;;;;;;;;;14.92;98.42;99632.63;7354699;19;19925;-68
2022/12/31 10:56:47;;;;;;;;;;;;;;;14.93;98.47;99636.91;7352635;19;19946;-68
2022/12/31 10:59:21;;;;;;;;;;;;;;;14.91;98.72;99637.09;7351806;19;20554;-68
2022/12/31 11:02:03;;;;;;;;;;;;;;;14.91;99.21;99646.88;7353755;19;19937;-66
2022/12/31 11:04:40;;;;;;;;;;;;;;;14.91;99.86;99649.53;7353545;19;19927;-66
2022/12/31 11:07:10;;;;;;;;;;;;;;;14.92;100.00;99643.22;7350545;19;19936;-68
2022/12/31 11:09:38;;;;;;;;;;;;;;;14.91;100.00;99636.28;7353351;19;20584;-67
2022/12/31 11:12:25;;;;;;;;;;;;;;;14.91;100.00;99634.44;7351560;19;20065;-67
2022/12/31 11:15:05;;;;;;;;;;;;;;;14.90;100.00;99632.00;7350390;19;19927;-67
2022/12/31 11:17:44;;;;;;;;;;;;;;;14.89;100.00;99622.44;7353152;19;20393;-68
2022/12/31 11:20:22;;;;;;;;;;;;;;;14.88;100.00;99618.97;7349760;19;19922;-68
2022/12/31 11:23:03;;;;;;;;;;;;;;;14.88;100.00;99642.81;7353133;19;20290;-68
2022/12/31 11:25:43;;;;;;;;;;;;;;;14.87;100.00;99643.03;7356819;19;19956;-67
2022/12/31 11:28:12;;;;;;;;;;;;;;;14.87;100.00;99640.38;7359022;19;19926;-68
2022/12/31 11:30:53;;;;;;;;;;;;;;;14.86;100.00;99646.69;7358450;19;19983;-67
2022/12/31 11:33:33;;;;;;;;;;;;;;;14.85;100.00;99637.13;7358717;19;20418;-68
2022/12/31 11:36:11;;;;;;;;;;;;;;;14.83;100.00;99629.38;7356347;19;19926;-68
2022/12/31 11:38:45;;;;;;;;;;;;;;;14.81;100.00;99626.16;7358133;19;19978;-68
2022/12/31 11:41:23;;;;;;;;;;;;;;;14.80;100.00;99618.41;7356460;19;19926;-67
2022/12/31 11:43:54;;;;;;;;;;;;;;;14.79;100.00;99617.59;7360132;19;20324;-68
2022/12/31 11:46:34;;;;;;;;;;;;;;;14.79;100.00;99612.28;7359793;19;19951;-67
2022/12/31 11:49:11;;;;;;;;;;;;;;;14.76;100.00;99618.00;7357070;19;19918;-68
2022/12/31 11:51:41;;;;;;;;;;;;;;;14.76;100.00;99618.00;7354575;19;19926;-67
2022/12/31 11:54:32;;;;;;;;;;;;;;;14.74;100.00;99621.88;7359411;19;20357;-66
2022/12/31 11:57:15;;;;;;;;;;;;;;;14.70;100.00;99618.03;7357647;19;19927;-67
2022/12/31 11:59:44;;;;;;;;;;;;;;;14.65;100.00;99608.06;7356945;19;20186;-66
2022/12/31 12:02:24;;;;;;;;;;;;;;;14.63;100.00;99590.78;7357500;19;19935;-66
2022/12/31 12:04:57;;;;;;;;;;;;;;;14.61;100.00;99596.28;7357919;19;19929;-70
2022/12/31 12:07:26;;;;;;;;;;;;;;;14.59;100.00;99593.00;7355294;19;19925;-67
2022/12/31 12:09:57;;;;;;;;;;;;;;;14.57;100.00;99591.63;7357047;19;19922;-67
2022/12/31 12:12:39;;;;;;;;;;;;;;;14.55;100.00;99591.81;7362074;19;19975;-66
2022/12/31 12:15:09;;;;;;;;;;;;;;;14.54;100.00;99587.53;7357531;19;19955;-67
2022/12/31 12:17:38;;;;;;;;;;;;;;;14.53;100.00;99580.59;7357133;19;19921;-67
2022/12/31 12:20:20;;;;;;;;;;;;;;;14.53;100.00;99584.06;7356783;19;20261;-67
2022/12/31 12:22:52;;;;;;;;;;;;;;;14.54;100.00;99591.00;7355759;19;19933;-69
2022/12/31 12:25:36;;;;;;;;;;;;;;;14.54;100.00;99582.25;7356245;19;20508;-67
2022/12/31 12:28:20;;;;;;;;;;;;;;;14.54;100.00;99569.00;7353679;19;19983;-68
2022/12/31 12:30:57;;;;;;;;;;;;;;;14.50;100.00;99568.63;7356607;19;19947;-67
2022/12/31 12:33:29;;;;;;;;;;;;;;;14.48;100.00;99561.91;7357702;19;20324;-67
2022/12/31 12:36:08;;;;;;;;;;;;;;;14.47;100.00;99568.22;7352883;19;21590;-66
2022/12/31 12:38:36;;;;;;;;;;;;;;;14.47;100.00;99557.66;7356792;19;19915;-67
2022/12/31 12:41:09;;;;;;;;;;;;;;;14.43;100.00;99565.16;7357970;19;19918;-68
2022/12/31 12:43:38;;;;;;;;;;;;;;;14.40;100.00;99547.06;7355332;19;19972;-67
2022/12/31 12:46:19;;;;;;;;;;;;;;;14.42;100.00;99558.28;7354009;19;20232;-68
2022/12/31 12:48:48;;;;;;;;;;;;;;;14.41;100.00;99555.84;7358047;19;20016;-66
2022/12/31 12:51:22;;;;;;;;;;;;;;;14.43;100.00;99551.13;7352667;19;21557;-66
2022/12/31 12:53:59;;;;;;;;;;;;;;;14.47;100.00;99549.72;7354836;19;19919;-68
2022/12/31 12:56:29;;;;;;;;;;;;;;;14.49;100.00;99552.94;7355440;19;19923;-65
2022/12/31 12:59:01;;;;;;;;;;;;;;;14.49;100.00;99553.75;7354354;19;20796;-67
2022/12/31 13:01:37;;;;;;;;;;;;;;;14.52;100.00;99561.28;7358811;19;21560;-68
2022/12/31 13:04:18;;;;;;;;;;;;;;;14.53;100.00;99565.53;7356651;19;20585;-67
2022/12/31 13:07:16;;;;;;;;;;;;;;;14.56;100.00;99553.75;7351462;19;20130;-68
2022/12/31 13:10:04;;;;;;;;;;;;;;;14.57;100.00;99550.06;7357778;19;19915;-67
2022/12/31 13:12:41;;;;;;;;;;;;;;;14.60;100.00;99575.31;7355719;19;20443;-67
2022/12/31 13:15:36;;;;;;;;;;;;;;;14.61;100.00;99564.50;7353925;19;19927;-67